sensor_id;sensor_type;location;lat;lon;timestamp;P1;durP1;ratioP1;P2;durP2;ratioP2
39032;SDS011;24794;51.982;5.878;2023-03-31T00:00:36;8.43;;;2.15;;
39032;SDS011;24794;51.982;5.878;2023-03-31T00:01:37;12.23;;;2.13;;
39032;SDS011;24794;51.982;5.878;2023-03-31T00:02:41;12.13;;;2.35;;
39032;SDS011;24794;51.982;5.878;2023-03-31T00:03:41;8.20;;;1.70;;
39032;SDS011;24794;51.982;5.878;2023-03-31T00:04:42;9.13;;;2.10;;
39032;SDS011;24794;51.982;5.878;2023-03-31T00:05:54;9.07;;;2.20;;
39032;SDS011;24794;51.982;5.878;2023-03-31T00:06:57;10.20;;;2.75;;
39032;SDS011;24794;51.982;5.878;2023-03-31T00:07:58;9.32;;;2.33;;
39032;SDS011;24794;51.982;5.878;2023-03-31T00:09:01;10.60;;;2.13;;
39032;SDS011;24794;51.982;5.878;2023-03-31T00:10:02;4.55;;;1.70;;
39032;SDS011;24794;51.982;5.878;2023-03-31T00:11:04;11.70;;;2.33;;
39032;SDS011;24794;51.982;5.878;2023-03-31T00:12:08;9.68;;;2.28;;
39032;SDS011;24794;51.982;5.878;2023-03-31T00:13:09;8.30;;;1.85;;
39032;SDS011;24794;51.982;5.878;2023-03-31T00:14:10;7.80;;;2.15;;
39032;SDS011;24794;51.982;5.878;2023-03-31T00:15:11;11.30;;;2.33;;
39032;SDS011;24794;51.982;5.878;2023-03-31T00:16:11;8.98;;;2.03;;
39032;SDS011;24794;51.982;5.878;2023-03-31T00:17:12;9.27;;;2.00;;
39032;SDS011;24794;51.982;5.878;2023-03-31T00:18:13;8.10;;;1.90;;
39032;SDS011;24794;51.982;5.878;2023-03-31T00:19:14;9.88;;;1.77;;
39032;SDS011;24794;51.982;5.878;2023-03-31T00:20:18;7.30;;;1.98;;
39032;SDS011;24794;51.982;5.878;2023-03-31T00:21:20;7.75;;;2.00;;
39032;SDS011;24794;51.982;5.878;2023-03-31T00:22:28;9.52;;;2.30;;
39032;SDS011;24794;51.982;5.878;2023-03-31T00:23:29;8.27;;;2.05;;
39032;SDS011;24794;51.982;5.878;2023-03-31T00:24:30;5.72;;;1.85;;
39032;SDS011;24794;51.982;5.878;2023-03-31T00:25:32;5.35;;;1.33;;
39032;SDS011;24794;51.982;5.878;2023-03-31T00:26:33;11.98;;;2.33;;
39032;SDS011;24794;51.982;5.878;2023-03-31T00:27:35;13.40;;;3.15;;
39032;SDS011;24794;51.982;5.878;2023-03-31T00:28:36;13.07;;;3.17;;
39032;SDS011;24794;51.982;5.878;2023-03-31T00:29:36;11.43;;;2.58;;
39032;SDS011;24794;51.982;5.878;2023-03-31T00:30:40;10.95;;;2.53;;
39032;SDS011;24794;51.982;5.878;2023-03-31T00:31:41;14.55;;;2.55;;
39032;SDS011;24794;51.982;5.878;2023-03-31T00:32:41;11.07;;;2.35;;
39032;SDS011;24794;51.982;5.878;2023-03-31T00:33:42;8.48;;;2.38;;
39032;SDS011;24794;51.982;5.878;2023-03-31T00:34:44;9.32;;;2.30;;
39032;SDS011;24794;51.982;5.878;2023-03-31T00:35:45;12.13;;;2.50;;
39032;SDS011;24794;51.982;5.878;2023-03-31T00:36:49;8.93;;;2.20;;
39032;SDS011;24794;51.982;5.878;2023-03-31T00:37:55;8.15;;;2.33;;
39032;SDS011;24794;51.982;5.878;2023-03-31T00:39:00;10.20;;;2.42;;
39032;SDS011;24794;51.982;5.878;2023-03-31T00:40:05;9.07;;;2.38;;
39032;SDS011;24794;51.982;5.878;2023-03-31T00:41:08;12.43;;;3.40;;
39032;SDS011;24794;51.982;5.878;2023-03-31T00:42:09;9.93;;;3.15;;
39032;SDS011;24794;51.982;5.878;2023-03-31T00:44:29;7.47;;;2.55;;
39032;SDS011;24794;51.982;5.878;2023-03-31T00:45:32;9.90;;;2.65;;
39032;SDS011;24794;51.982;5.878;2023-03-31T00:46:33;9.73;;;2.58;;
39032;SDS011;24794;51.982;5.878;2023-03-31T00:47:51;10.68;;;2.80;;
39032;SDS011;24794;51.982;5.878;2023-03-31T00:48:56;10.15;;;2.92;;
39032;SDS011;24794;51.982;5.878;2023-03-31T00:49:57;8.90;;;2.20;;
39032;SDS011;24794;51.982;5.878;2023-03-31T00:50:58;10.20;;;2.47;;
39032;SDS011;24794;51.982;5.878;2023-03-31T00:52:24;10.80;;;3.42;;
39032;SDS011;24794;51.982;5.878;2023-03-31T00:53:30;9.60;;;3.08;;
39032;SDS011;24794;51.982;5.878;2023-03-31T00:54:32;9.55;;;2.90;;
39032;SDS011;24794;51.982;5.878;2023-03-31T00:55:42;12.40;;;2.42;;
39032;SDS011;24794;51.982;5.878;2023-03-31T00:56:48;8.93;;;2.40;;
39032;SDS011;24794;51.982;5.878;2023-03-31T00:57:52;9.48;;;2.20;;
39032;SDS011;24794;51.982;5.878;2023-03-31T00:58:54;9.05;;;2.20;;
39032;SDS011;24794;51.982;5.878;2023-03-31T01:00:00;12.18;;;2.90;;
39032;SDS011;24794;51.982;5.878;2023-03-31T01:01:15;10.63;;;2.95;;
39032;SDS011;24794;51.982;5.878;2023-03-31T01:02:19;8.02;;;2.55;;
39032;SDS011;24794;51.982;5.878;2023-03-31T01:03:20;8.63;;;2.38;;
39032;SDS011;24794;51.982;5.878;2023-03-31T01:04:21;11.52;;;2.95;;
39032;SDS011;24794;51.982;5.878;2023-03-31T01:05:24;10.68;;;2.17;;
39032;SDS011;24794;51.982;5.878;2023-03-31T01:06:27;6.78;;;2.35;;
39032;SDS011;24794;51.982;5.878;2023-03-31T01:07:41;8.00;;;2.13;;
39032;SDS011;24794;51.982;5.878;2023-03-31T01:08:46;7.95;;;2.08;;
39032;SDS011;24794;51.982;5.878;2023-03-31T01:09:48;4.78;;;1.42;;
39032;SDS011;24794;51.982;5.878;2023-03-31T01:10:54;11.55;;;2.58;;
39032;SDS011;24794;51.982;5.878;2023-03-31T01:11:56;7.95;;;2.55;;
39032;SDS011;24794;51.982;5.878;2023-03-31T01:12:57;9.43;;;2.08;;
39032;SDS011;24794;51.982;5.878;2023-03-31T01:13:58;9.63;;;2.17;;
39032;SDS011;24794;51.982;5.878;2023-03-31T01:14:58;8.52;;;2.28;;
39032;SDS011;24794;51.982;5.878;2023-03-31T01:16:00;8.00;;;2.25;;
39032;SDS011;24794;51.982;5.878;2023-03-31T01:17:01;4.82;;;1.80;;
39032;SDS011;24794;51.982;5.878;2023-03-31T01:18:02;10.05;;;2.08;;
39032;SDS011;24794;51.982;5.878;2023-03-31T01:19:05;8.57;;;1.80;;
39032;SDS011;24794;51.982;5.878;2023-03-31T01:20:40;6.07;;;1.67;;
39032;SDS011;24794;51.982;5.878;2023-03-31T01:28:32;5.85;;;1.30;;
39032;SDS011;24794;51.982;5.878;2023-03-31T01:31:37;6.50;;;1.40;;
39032;SDS011;24794;51.982;5.878;2023-03-31T01:33:02;5.65;;;1.33;;
39032;SDS011;24794;51.982;5.878;2023-03-31T01:34:51;5.15;;;1.17;;
39032;SDS011;24794;51.982;5.878;2023-03-31T01:36:15;3.55;;;1.20;;
39032;SDS011;24794;51.982;5.878;2023-03-31T01:41:03;5.68;;;1.40;;
39032;SDS011;24794;51.982;5.878;2023-03-31T01:44:39;6.07;;;1.35;;
39032;SDS011;24794;51.982;5.878;2023-03-31T01:47:09;5.45;;;1.00;;
39032;SDS011;24794;51.982;5.878;2023-03-31T01:48:26;6.13;;;1.17;;
39032;SDS011;24794;51.982;5.878;2023-03-31T01:49:44;6.20;;;1.08;;
39032;SDS011;24794;51.982;5.878;2023-03-31T01:50:56;6.50;;;1.10;;
39032;SDS011;24794;51.982;5.878;2023-03-31T01:52:03;5.40;;;1.25;;
39032;SDS011;24794;51.982;5.878;2023-03-31T01:53:19;5.85;;;1.30;;
39032;SDS011;24794;51.982;5.878;2023-03-31T01:54:38;5.80;;;1.27;;
39032;SDS011;24794;51.982;5.878;2023-03-31T01:57:04;4.75;;;1.40;;
39032;SDS011;24794;51.982;5.878;2023-03-31T01:58:33;8.63;;;1.70;;
39032;SDS011;24794;51.982;5.878;2023-03-31T01:59:38;6.25;;;1.40;;
39032;SDS011;24794;51.982;5.878;2023-03-31T02:00:50;6.65;;;1.40;;
39032;SDS011;24794;51.982;5.878;2023-03-31T02:03:16;7.07;;;1.55;;
39032;SDS011;24794;51.982;5.878;2023-03-31T02:04:22;6.75;;;1.63;;
39032;SDS011;24794;51.982;5.878;2023-03-31T02:05:34;7.68;;;1.73;;
39032;SDS011;24794;51.982;5.878;2023-03-31T02:06:40;7.53;;;1.65;;
39032;SDS011;24794;51.982;5.878;2023-03-31T02:07:46;9.65;;;1.85;;
39032;SDS011;24794;51.982;5.878;2023-03-31T02:08:56;8.85;;;1.58;;
39032;SDS011;24794;51.982;5.878;2023-03-31T02:10:03;8.20;;;1.70;;
39032;SDS011;24794;51.982;5.878;2023-03-31T02:11:07;9.77;;;1.60;;
39032;SDS011;24794;51.982;5.878;2023-03-31T02:12:08;6.63;;;1.60;;
39032;SDS011;24794;51.982;5.878;2023-03-31T02:13:11;9.02;;;1.67;;
39032;SDS011;24794;51.982;5.878;2023-03-31T02:14:13;9.15;;;1.60;;
39032;SDS011;24794;51.982;5.878;2023-03-31T02:15:19;10.13;;;1.90;;
39032;SDS011;24794;51.982;5.878;2023-03-31T02:16:25;6.50;;;1.58;;
39032;SDS011;24794;51.982;5.878;2023-03-31T02:17:26;9.75;;;1.80;;
39032;SDS011;24794;51.982;5.878;2023-03-31T02:18:30;5.82;;;1.45;;
39032;SDS011;24794;51.982;5.878;2023-03-31T02:19:32;6.97;;;1.40;;
39032;SDS011;24794;51.982;5.878;2023-03-31T02:20:39;5.25;;;1.50;;
39032;SDS011;24794;51.982;5.878;2023-03-31T02:21:41;8.38;;;1.83;;
39032;SDS011;24794;51.982;5.878;2023-03-31T02:22:43;6.18;;;1.52;;
39032;SDS011;24794;51.982;5.878;2023-03-31T02:23:47;9.70;;;1.77;;
39032;SDS011;24794;51.982;5.878;2023-03-31T02:24:49;7.40;;;1.65;;
39032;SDS011;24794;51.982;5.878;2023-03-31T02:25:53;8.15;;;1.77;;
39032;SDS011;24794;51.982;5.878;2023-03-31T02:27:04;8.25;;;1.88;;
39032;SDS011;24794;51.982;5.878;2023-03-31T02:28:11;8.40;;;1.50;;
39032;SDS011;24794;51.982;5.878;2023-03-31T02:29:15;6.80;;;1.40;;
39032;SDS011;24794;51.982;5.878;2023-03-31T02:30:16;8.73;;;1.85;;
39032;SDS011;24794;51.982;5.878;2023-03-31T02:33:37;4.88;;;1.50;;
39032;SDS011;24794;51.982;5.878;2023-03-31T02:34:38;6.80;;;1.77;;
39032;SDS011;24794;51.982;5.878;2023-03-31T02:35:38;11.95;;;1.90;;
39032;SDS011;24794;51.982;5.878;2023-03-31T02:36:40;12.60;;;2.17;;
39032;SDS011;24794;51.982;5.878;2023-03-31T02:37:42;7.50;;;1.98;;
39032;SDS011;24794;51.982;5.878;2023-03-31T02:38:45;9.65;;;1.80;;
39032;SDS011;24794;51.982;5.878;2023-03-31T02:39:50;7.45;;;1.95;;
39032;SDS011;24794;51.982;5.878;2023-03-31T02:40:53;12.63;;;2.10;;
39032;SDS011;24794;51.982;5.878;2023-03-31T02:41:53;8.63;;;1.90;;
39032;SDS011;24794;51.982;5.878;2023-03-31T02:42:54;9.13;;;2.22;;
39032;SDS011;24794;51.982;5.878;2023-03-31T02:43:56;9.38;;;1.83;;
39032;SDS011;24794;51.982;5.878;2023-03-31T02:45:00;10.32;;;2.00;;
39032;SDS011;24794;51.982;5.878;2023-03-31T02:46:02;11.70;;;2.20;;
39032;SDS011;24794;51.982;5.878;2023-03-31T02:47:04;10.52;;;2.63;;
39032;SDS011;24794;51.982;5.878;2023-03-31T02:49:27;7.93;;;1.90;;
39032;SDS011;24794;51.982;5.878;2023-03-31T02:50:30;10.40;;;2.20;;
39032;SDS011;24794;51.982;5.878;2023-03-31T02:53:02;9.98;;;2.58;;
39032;SDS011;24794;51.982;5.878;2023-03-31T02:55:35;14.18;;;2.40;;
39032;SDS011;24794;51.982;5.878;2023-03-31T03:00:41;8.63;;;1.98;;
39032;SDS011;24794;51.982;5.878;2023-03-31T03:04:12;11.90;;;2.20;;
39032;SDS011;24794;51.982;5.878;2023-03-31T03:08:08;11.57;;;1.85;;
39032;SDS011;24794;51.982;5.878;2023-03-31T03:11:00;12.73;;;2.38;;
39032;SDS011;24794;51.982;5.878;2023-03-31T03:12:28;15.90;;;2.30;;
39032;SDS011;24794;51.982;5.878;2023-03-31T03:16:31;8.10;;;1.92;;
39032;SDS011;24794;51.982;5.878;2023-03-31T03:17:36;6.38;;;1.30;;
39032;SDS011;24794;51.982;5.878;2023-03-31T03:18:40;9.98;;;2.00;;
39032;SDS011;24794;51.982;5.878;2023-03-31T03:19:41;11.80;;;1.48;;
39032;SDS011;24794;51.982;5.878;2023-03-31T03:20:42;8.82;;;1.73;;
39032;SDS011;24794;51.982;5.878;2023-03-31T03:21:47;12.00;;;2.00;;
39032;SDS011;24794;51.982;5.878;2023-03-31T03:22:48;9.13;;;1.88;;
39032;SDS011;24794;51.982;5.878;2023-03-31T03:23:49;8.90;;;1.50;;
39032;SDS011;24794;51.982;5.878;2023-03-31T03:24:50;12.70;;;1.75;;
39032;SDS011;24794;51.982;5.878;2023-03-31T03:25:51;9.15;;;1.85;;
39032;SDS011;24794;51.982;5.878;2023-03-31T03:26:51;7.82;;;1.45;;
39032;SDS011;24794;51.982;5.878;2023-03-31T03:27:52;5.13;;;1.05;;
39032;SDS011;24794;51.982;5.878;2023-03-31T03:28:53;9.40;;;1.42;;
39032;SDS011;24794;51.982;5.878;2023-03-31T03:29:54;5.97;;;1.67;;
39032;SDS011;24794;51.982;5.878;2023-03-31T03:30:55;9.10;;;1.73;;
39032;SDS011;24794;51.982;5.878;2023-03-31T03:31:56;6.70;;;1.20;;
39032;SDS011;24794;51.982;5.878;2023-03-31T03:32:56;5.10;;;1.52;;
39032;SDS011;24794;51.982;5.878;2023-03-31T03:33:57;8.85;;;1.40;;
39032;SDS011;24794;51.982;5.878;2023-03-31T03:35:02;9.32;;;1.63;;
39032;SDS011;24794;51.982;5.878;2023-03-31T03:36:03;6.05;;;1.20;;
39032;SDS011;24794;51.982;5.878;2023-03-31T03:37:04;8.63;;;1.65;;
39032;SDS011;24794;51.982;5.878;2023-03-31T03:38:05;6.82;;;1.70;;
39032;SDS011;24794;51.982;5.878;2023-03-31T03:39:06;11.70;;;1.70;;
39032;SDS011;24794;51.982;5.878;2023-03-31T03:40:07;11.45;;;1.90;;
39032;SDS011;24794;51.982;5.878;2023-03-31T03:41:09;6.72;;;1.73;;
39032;SDS011;24794;51.982;5.878;2023-03-31T03:42:09;4.28;;;1.10;;
39032;SDS011;24794;51.982;5.878;2023-03-31T03:43:10;8.00;;;1.50;;
39032;SDS011;24794;51.982;5.878;2023-03-31T03:44:11;7.57;;;1.58;;
39032;SDS011;24794;51.982;5.878;2023-03-31T03:45:11;7.03;;;1.42;;
39032;SDS011;24794;51.982;5.878;2023-03-31T03:46:12;11.32;;;1.90;;
39032;SDS011;24794;51.982;5.878;2023-03-31T03:47:12;6.97;;;1.38;;
39032;SDS011;24794;51.982;5.878;2023-03-31T03:48:13;7.40;;;1.58;;
39032;SDS011;24794;51.982;5.878;2023-03-31T03:49:14;6.95;;;1.30;;
39032;SDS011;24794;51.982;5.878;2023-03-31T03:50:14;4.95;;;1.20;;
39032;SDS011;24794;51.982;5.878;2023-03-31T03:51:15;7.28;;;1.52;;
39032;SDS011;24794;51.982;5.878;2023-03-31T03:52:16;6.10;;;1.23;;
39032;SDS011;24794;51.982;5.878;2023-03-31T03:53:16;8.40;;;2.03;;
39032;SDS011;24794;51.982;5.878;2023-03-31T03:54:17;8.00;;;1.67;;
39032;SDS011;24794;51.982;5.878;2023-03-31T03:55:17;6.47;;;1.25;;
39032;SDS011;24794;51.982;5.878;2023-03-31T03:56:18;4.72;;;1.38;;
39032;SDS011;24794;51.982;5.878;2023-03-31T03:57:21;8.55;;;1.50;;
39032;SDS011;24794;51.982;5.878;2023-03-31T03:58:21;6.25;;;1.17;;
39032;SDS011;24794;51.982;5.878;2023-03-31T03:59:22;8.95;;;1.77;;
39032;SDS011;24794;51.982;5.878;2023-03-31T04:00:23;6.40;;;1.38;;
39032;SDS011;24794;51.982;5.878;2023-03-31T04:01:24;5.70;;;1.60;;
39032;SDS011;24794;51.982;5.878;2023-03-31T04:02:24;7.10;;;1.40;;
39032;SDS011;24794;51.982;5.878;2023-03-31T04:03:27;5.88;;;1.63;;
39032;SDS011;24794;51.982;5.878;2023-03-31T04:04:28;6.90;;;1.40;;
39032;SDS011;24794;51.982;5.878;2023-03-31T04:05:28;8.13;;;1.63;;
39032;SDS011;24794;51.982;5.878;2023-03-31T04:06:29;8.18;;;1.60;;
39032;SDS011;24794;51.982;5.878;2023-03-31T04:07:30;4.80;;;1.20;;
39032;SDS011;24794;51.982;5.878;2023-03-31T04:08:30;4.57;;;1.10;;
39032;SDS011;24794;51.982;5.878;2023-03-31T04:09:31;5.47;;;1.42;;
39032;SDS011;24794;51.982;5.878;2023-03-31T04:10:31;10.50;;;1.70;;
39032;SDS011;24794;51.982;5.878;2023-03-31T04:11:32;5.75;;;1.30;;
39032;SDS011;24794;51.982;5.878;2023-03-31T04:12:33;5.30;;;1.20;;
39032;SDS011;24794;51.982;5.878;2023-03-31T04:13:34;7.22;;;1.63;;
39032;SDS011;24794;51.982;5.878;2023-03-31T04:14:35;5.70;;;1.83;;
39032;SDS011;24794;51.982;5.878;2023-03-31T04:15:36;9.02;;;1.80;;
39032;SDS011;24794;51.982;5.878;2023-03-31T04:16:37;9.07;;;1.90;;
39032;SDS011;24794;51.982;5.878;2023-03-31T04:17:39;10.63;;;2.00;;
39032;SDS011;24794;51.982;5.878;2023-03-31T04:18:40;7.55;;;1.60;;
39032;SDS011;24794;51.982;5.878;2023-03-31T04:19:41;7.80;;;1.58;;
39032;SDS011;24794;51.982;5.878;2023-03-31T04:20:42;7.03;;;1.83;;
39032;SDS011;24794;51.982;5.878;2023-03-31T04:21:44;6.50;;;1.45;;
39032;SDS011;24794;51.982;5.878;2023-03-31T04:22:44;9.98;;;1.58;;
39032;SDS011;24794;51.982;5.878;2023-03-31T04:23:46;7.78;;;1.45;;
39032;SDS011;24794;51.982;5.878;2023-03-31T04:24:47;7.95;;;1.80;;
39032;SDS011;24794;51.982;5.878;2023-03-31T04:25:51;10.65;;;1.90;;
39032;SDS011;24794;51.982;5.878;2023-03-31T04:26:52;13.05;;;2.20;;
39032;SDS011;24794;51.982;5.878;2023-03-31T04:27:53;12.20;;;2.10;;
39032;SDS011;24794;51.982;5.878;2023-03-31T04:28:54;13.93;;;2.20;;
39032;SDS011;24794;51.982;5.878;2023-03-31T04:29:59;13.07;;;2.22;;
39032;SDS011;24794;51.982;5.878;2023-03-31T04:31:00;9.90;;;2.10;;
39032;SDS011;24794;51.982;5.878;2023-03-31T04:32:01;11.05;;;1.80;;
39032;SDS011;24794;51.982;5.878;2023-03-31T04:33:02;10.70;;;2.05;;
39032;SDS011;24794;51.982;5.878;2023-03-31T04:34:05;13.13;;;1.98;;
39032;SDS011;24794;51.982;5.878;2023-03-31T04:35:12;5.60;;;1.35;;
39032;SDS011;24794;51.982;5.878;2023-03-31T04:36:14;10.63;;;2.13;;
39032;SDS011;24794;51.982;5.878;2023-03-31T04:37:17;12.88;;;2.08;;
39032;SDS011;24794;51.982;5.878;2023-03-31T04:38:19;8.90;;;1.75;;
39032;SDS011;24794;51.982;5.878;2023-03-31T04:39:23;9.15;;;1.88;;
39032;SDS011;24794;51.982;5.878;2023-03-31T04:40:25;6.70;;;1.65;;
39032;SDS011;24794;51.982;5.878;2023-03-31T04:41:26;11.73;;;1.58;;
39032;SDS011;24794;51.982;5.878;2023-03-31T04:42:27;9.05;;;2.28;;
39032;SDS011;24794;51.982;5.878;2023-03-31T04:43:27;7.85;;;1.75;;
39032;SDS011;24794;51.982;5.878;2023-03-31T04:44:28;6.47;;;1.63;;
39032;SDS011;24794;51.982;5.878;2023-03-31T04:45:28;5.88;;;1.35;;
39032;SDS011;24794;51.982;5.878;2023-03-31T04:46:29;8.63;;;2.03;;
39032;SDS011;24794;51.982;5.878;2023-03-31T04:47:30;9.85;;;1.90;;
39032;SDS011;24794;51.982;5.878;2023-03-31T04:48:31;11.52;;;1.90;;
39032;SDS011;24794;51.982;5.878;2023-03-31T04:49:31;6.88;;;1.50;;
39032;SDS011;24794;51.982;5.878;2023-03-31T04:50:32;8.48;;;1.52;;
39032;SDS011;24794;51.982;5.878;2023-03-31T04:51:33;7.75;;;1.63;;
39032;SDS011;24794;51.982;5.878;2023-03-31T04:52:34;7.57;;;1.48;;
39032;SDS011;24794;51.982;5.878;2023-03-31T04:53:34;7.97;;;1.60;;
39032;SDS011;24794;51.982;5.878;2023-03-31T04:54:35;9.88;;;1.80;;
39032;SDS011;24794;51.982;5.878;2023-03-31T04:55:36;8.27;;;1.83;;
39032;SDS011;24794;51.982;5.878;2023-03-31T04:56:36;7.80;;;1.60;;
39032;SDS011;24794;51.982;5.878;2023-03-31T04:57:37;7.25;;;1.65;;
39032;SDS011;24794;51.982;5.878;2023-03-31T04:58:37;7.28;;;1.33;;
39032;SDS011;24794;51.982;5.878;2023-03-31T04:59:38;4.72;;;1.42;;
39032;SDS011;24794;51.982;5.878;2023-03-31T05:00:38;7.00;;;1.20;;
39032;SDS011;24794;51.982;5.878;2023-03-31T05:01:39;8.80;;;1.63;;
39032;SDS011;24794;51.982;5.878;2023-03-31T05:02:44;6.72;;;1.50;;
39032;SDS011;24794;51.982;5.878;2023-03-31T05:03:45;7.47;;;1.60;;
39032;SDS011;24794;51.982;5.878;2023-03-31T05:04:49;10.07;;;1.73;;
39032;SDS011;24794;51.982;5.878;2023-03-31T05:05:50;6.95;;;1.40;;
39032;SDS011;24794;51.982;5.878;2023-03-31T05:06:51;5.93;;;1.20;;
39032;SDS011;24794;51.982;5.878;2023-03-31T05:07:51;8.75;;;1.60;;
39032;SDS011;24794;51.982;5.878;2023-03-31T05:08:52;9.82;;;1.80;;
39032;SDS011;24794;51.982;5.878;2023-03-31T05:09:52;6.22;;;1.30;;
39032;SDS011;24794;51.982;5.878;2023-03-31T05:10:53;4.60;;;1.00;;
39032;SDS011;24794;51.982;5.878;2023-03-31T05:11:53;4.70;;;1.30;;
39032;SDS011;24794;51.982;5.878;2023-03-31T05:12:55;5.95;;;1.10;;
39032;SDS011;24794;51.982;5.878;2023-03-31T05:13:56;3.33;;;1.00;;
39032;SDS011;24794;51.982;5.878;2023-03-31T05:14:56;4.72;;;0.90;;
39032;SDS011;24794;51.982;5.878;2023-03-31T05:15:57;4.53;;;1.33;;
39032;SDS011;24794;51.982;5.878;2023-03-31T05:17:04;5.35;;;1.13;;
39032;SDS011;24794;51.982;5.878;2023-03-31T05:18:05;7.25;;;1.27;;
39032;SDS011;24794;51.982;5.878;2023-03-31T05:19:06;7.03;;;1.40;;
39032;SDS011;24794;51.982;5.878;2023-03-31T05:20:07;7.68;;;1.63;;
39032;SDS011;24794;51.982;5.878;2023-03-31T05:21:09;7.53;;;1.75;;
39032;SDS011;24794;51.982;5.878;2023-03-31T05:22:11;9.70;;;2.17;;
39032;SDS011;24794;51.982;5.878;2023-03-31T05:23:11;7.20;;;1.60;;
39032;SDS011;24794;51.982;5.878;2023-03-31T05:24:12;9.20;;;1.77;;
39032;SDS011;24794;51.982;5.878;2023-03-31T05:25:13;8.05;;;1.65;;
39032;SDS011;24794;51.982;5.878;2023-03-31T05:26:17;7.47;;;1.33;;
39032;SDS011;24794;51.982;5.878;2023-03-31T05:27:18;7.15;;;1.65;;
39032;SDS011;24794;51.982;5.878;2023-03-31T05:28:20;9.85;;;1.92;;
39032;SDS011;24794;51.982;5.878;2023-03-31T05:29:21;5.38;;;1.40;;
39032;SDS011;24794;51.982;5.878;2023-03-31T05:30:22;8.70;;;1.42;;
39032;SDS011;24794;51.982;5.878;2023-03-31T05:31:25;7.53;;;1.38;;
39032;SDS011;24794;51.982;5.878;2023-03-31T05:32:26;6.65;;;1.58;;
39032;SDS011;24794;51.982;5.878;2023-03-31T05:33:27;8.35;;;1.25;;
39032;SDS011;24794;51.982;5.878;2023-03-31T05:34:28;6.55;;;1.33;;
39032;SDS011;24794;51.982;5.878;2023-03-31T05:35:28;6.25;;;1.02;;
39032;SDS011;24794;51.982;5.878;2023-03-31T05:36:29;6.45;;;1.23;;
39032;SDS011;24794;51.982;5.878;2023-03-31T05:37:31;9.95;;;1.90;;
39032;SDS011;24794;51.982;5.878;2023-03-31T05:38:31;10.95;;;2.08;;
39032;SDS011;24794;51.982;5.878;2023-03-31T05:39:33;10.18;;;1.88;;
39032;SDS011;24794;51.982;5.878;2023-03-31T05:40:34;7.28;;;1.50;;
39032;SDS011;24794;51.982;5.878;2023-03-31T05:41:34;9.35;;;1.40;;
39032;SDS011;24794;51.982;5.878;2023-03-31T05:42:35;8.18;;;1.63;;
39032;SDS011;24794;51.982;5.878;2023-03-31T05:43:37;7.40;;;1.45;;
39032;SDS011;24794;51.982;5.878;2023-03-31T05:44:38;8.35;;;1.45;;
39032;SDS011;24794;51.982;5.878;2023-03-31T05:45:39;8.05;;;1.60;;
39032;SDS011;24794;51.982;5.878;2023-03-31T05:46:39;7.90;;;1.25;;
39032;SDS011;24794;51.982;5.878;2023-03-31T05:47:41;9.13;;;1.45;;
39032;SDS011;24794;51.982;5.878;2023-03-31T05:48:41;7.88;;;1.73;;
39032;SDS011;24794;51.982;5.878;2023-03-31T05:49:42;8.48;;;1.73;;
39032;SDS011;24794;51.982;5.878;2023-03-31T05:50:43;7.25;;;1.40;;
39032;SDS011;24794;51.982;5.878;2023-03-31T05:51:43;5.15;;;1.45;;
39032;SDS011;24794;51.982;5.878;2023-03-31T05:52:44;7.85;;;1.42;;
39032;SDS011;24794;51.982;5.878;2023-03-31T05:53:45;8.40;;;1.45;;
39032;SDS011;24794;51.982;5.878;2023-03-31T05:54:45;7.25;;;1.35;;
39032;SDS011;24794;51.982;5.878;2023-03-31T05:55:46;10.55;;;1.63;;
39032;SDS011;24794;51.982;5.878;2023-03-31T05:56:46;7.90;;;1.40;;
39032;SDS011;24794;51.982;5.878;2023-03-31T05:57:47;7.28;;;1.33;;
39032;SDS011;24794;51.982;5.878;2023-03-31T05:58:47;9.05;;;1.55;;
39032;SDS011;24794;51.982;5.878;2023-03-31T05:59:48;5.05;;;1.13;;
39032;SDS011;24794;51.982;5.878;2023-03-31T06:00:48;3.95;;;1.15;;
39032;SDS011;24794;51.982;5.878;2023-03-31T06:01:52;8.07;;;1.55;;
39032;SDS011;24794;51.982;5.878;2023-03-31T06:02:53;5.32;;;1.30;;
39032;SDS011;24794;51.982;5.878;2023-03-31T06:03:53;8.95;;;1.50;;
39032;SDS011;24794;51.982;5.878;2023-03-31T06:04:54;8.27;;;1.48;;
39032;SDS011;24794;51.982;5.878;2023-03-31T06:05:55;8.40;;;1.30;;
39032;SDS011;24794;51.982;5.878;2023-03-31T06:06:56;7.65;;;1.50;;
39032;SDS011;24794;51.982;5.878;2023-03-31T06:07:57;5.40;;;1.40;;
39032;SDS011;24794;51.982;5.878;2023-03-31T06:08:58;8.20;;;1.65;;
39032;SDS011;24794;51.982;5.878;2023-03-31T06:09:58;7.93;;;2.05;;
39032;SDS011;24794;51.982;5.878;2023-03-31T06:10:59;8.27;;;1.73;;
39032;SDS011;24794;51.982;5.878;2023-03-31T06:12:05;6.60;;;1.33;;
39032;SDS011;24794;51.982;5.878;2023-03-31T06:13:07;9.57;;;1.70;;
39032;SDS011;24794;51.982;5.878;2023-03-31T06:14:07;4.50;;;1.13;;
39032;SDS011;24794;51.982;5.878;2023-03-31T06:15:08;6.30;;;1.30;;
39032;SDS011;24794;51.982;5.878;2023-03-31T06:16:09;4.93;;;1.25;;
39032;SDS011;24794;51.982;5.878;2023-03-31T06:17:11;7.05;;;1.58;;
39032;SDS011;24794;51.982;5.878;2023-03-31T06:18:12;5.90;;;1.55;;
39032;SDS011;24794;51.982;5.878;2023-03-31T06:19:12;5.15;;;1.13;;
39032;SDS011;24794;51.982;5.878;2023-03-31T06:20:13;8.82;;;2.00;;
39032;SDS011;24794;51.982;5.878;2023-03-31T06:21:15;9.32;;;1.98;;
39032;SDS011;24794;51.982;5.878;2023-03-31T06:22:17;8.88;;;1.60;;
39032;SDS011;24794;51.982;5.878;2023-03-31T06:23:17;5.85;;;1.40;;
39032;SDS011;24794;51.982;5.878;2023-03-31T06:24:18;4.07;;;1.20;;
39032;SDS011;24794;51.982;5.878;2023-03-31T06:25:18;7.13;;;1.52;;
39032;SDS011;24794;51.982;5.878;2023-03-31T06:26:19;5.32;;;1.30;;
39032;SDS011;24794;51.982;5.878;2023-03-31T06:27:21;6.70;;;1.45;;
39032;SDS011;24794;51.982;5.878;2023-03-31T06:28:22;6.15;;;1.25;;
39032;SDS011;24794;51.982;5.878;2023-03-31T06:29:22;9.00;;;1.58;;
39032;SDS011;24794;51.982;5.878;2023-03-31T06:30:23;5.43;;;1.15;;
39032;SDS011;24794;51.982;5.878;2023-03-31T06:31:23;9.98;;;1.85;;
39032;SDS011;24794;51.982;5.878;2023-03-31T06:32:24;7.53;;;1.58;;
39032;SDS011;24794;51.982;5.878;2023-03-31T06:33:26;5.65;;;1.35;;
39032;SDS011;24794;51.982;5.878;2023-03-31T06:34:26;6.50;;;1.60;;
39032;SDS011;24794;51.982;5.878;2023-03-31T06:35:27;10.50;;;1.58;;
39032;SDS011;24794;51.982;5.878;2023-03-31T06:36:27;6.40;;;1.45;;
39032;SDS011;24794;51.982;5.878;2023-03-31T06:37:28;7.68;;;1.35;;
39032;SDS011;24794;51.982;5.878;2023-03-31T06:38:29;7.43;;;1.30;;
39032;SDS011;24794;51.982;5.878;2023-03-31T06:39:29;7.10;;;1.30;;
39032;SDS011;24794;51.982;5.878;2023-03-31T06:40:30;4.55;;;1.10;;
39032;SDS011;24794;51.982;5.878;2023-03-31T06:41:30;5.72;;;1.40;;
39032;SDS011;24794;51.982;5.878;2023-03-31T06:42:31;7.43;;;1.65;;
39032;SDS011;24794;51.982;5.878;2023-03-31T06:43:32;8.52;;;1.40;;
39032;SDS011;24794;51.982;5.878;2023-03-31T06:44:32;6.72;;;1.40;;
39032;SDS011;24794;51.982;5.878;2023-03-31T06:45:33;5.50;;;1.13;;
39032;SDS011;24794;51.982;5.878;2023-03-31T06:46:35;4.60;;;1.13;;
39032;SDS011;24794;51.982;5.878;2023-03-31T06:47:36;6.05;;;1.10;;
39032;SDS011;24794;51.982;5.878;2023-03-31T06:48:37;5.07;;;1.30;;
39032;SDS011;24794;51.982;5.878;2023-03-31T06:49:37;8.02;;;1.25;;
39032;SDS011;24794;51.982;5.878;2023-03-31T06:50:38;6.18;;;1.48;;
39032;SDS011;24794;51.982;5.878;2023-03-31T06:51:40;8.70;;;1.50;;
39032;SDS011;24794;51.982;5.878;2023-03-31T06:52:41;5.68;;;1.00;;
39032;SDS011;24794;51.982;5.878;2023-03-31T06:53:41;5.65;;;1.10;;
39032;SDS011;24794;51.982;5.878;2023-03-31T06:54:42;5.82;;;1.30;;
39032;SDS011;24794;51.982;5.878;2023-03-31T06:55:42;3.92;;;0.90;;
39032;SDS011;24794;51.982;5.878;2023-03-31T06:56:43;4.95;;;1.20;;
39032;SDS011;24794;51.982;5.878;2023-03-31T06:57:43;5.05;;;1.15;;
39032;SDS011;24794;51.982;5.878;2023-03-31T06:58:44;5.25;;;1.20;;